createdAt,value
2018-04-24T00:00:12.875Z,0.60
2018-04-24T00:02:51.523Z,0.53
2018-04-24T00:05:31.400Z,0.40
2018-04-24T00:08:09.828Z,0.23
2018-04-24T00:10:48.105Z,0.40
2018-04-24T00:13:26.588Z,0.50
2018-04-24T00:16:05.142Z,0.57
2018-04-24T00:18:43.862Z,0.50
2018-04-24T00:21:23.080Z,0.50
2018-04-24T00:24:01.363Z,0.63
2018-04-24T00:26:40.761Z,0.60
2018-04-24T00:29:22.847Z,0.60
2018-04-24T00:32:01.039Z,0.40
2018-04-24T00:34:40.207Z,0.60
2018-04-24T00:37:24.579Z,0.43
2018-04-24T00:40:03.518Z,0.40
2018-04-24T00:42:41.964Z,0.40
2018-04-24T00:45:25.472Z,0.40
2018-04-24T00:48:04.077Z,0.33
2018-04-24T00:50:43.247Z,0.70
2018-04-24T00:53:41.736Z,0.87
2018-04-24T00:56:20.866Z,0.90
2018-04-24T00:59:00.113Z,0.43
2018-04-24T01:01:40.504Z,0.30
2018-04-24T01:04:18.954Z,0.50
2018-04-24T01:06:57.361Z,0.40
2018-04-24T01:09:36.080Z,0.30
2018-04-24T01:12:14.512Z,0.53
2018-04-24T01:14:52.930Z,0.33
2018-04-24T01:17:31.460Z,0.33
2018-04-24T01:20:09.863Z,0.40
2018-04-24T01:22:48.212Z,0.40
2018-04-24T01:25:30.073Z,0.53
2018-04-24T01:28:08.217Z,0.40
2018-04-24T01:30:46.524Z,0.80
2018-04-24T01:33:27.872Z,0.57
2018-04-24T01:36:07.063Z,0.50
2018-04-24T01:38:46.245Z,0.43
2018-04-24T01:41:27.868Z,0.50
2018-04-24T01:44:05.987Z,0.50
2018-04-24T01:46:45.275Z,0.80
2018-04-24T01:49:25.009Z,0.97
2018-04-24T01:52:06.379Z,0.40
2018-04-24T01:54:44.726Z,0.53
2018-04-24T01:57:23.534Z,0.77
2018-04-24T02:00:02.713Z,0.60
2018-04-24T02:02:43.103Z,0.67
2018-04-24T02:05:26.902Z,0.40
2018-04-24T02:08:05.216Z,0.40
2018-04-24T02:10:44.033Z,0.30
2018-04-24T02:13:23.411Z,0.40
2018-04-24T02:16:01.864Z,0.30
2018-04-24T02:18:40.321Z,0.47
2018-04-24T02:21:19.507Z,0.40
2018-04-24T02:23:58.621Z,0.30
2018-04-24T02:26:38.052Z,0.30
2018-04-24T02:29:17.149Z,0.50
2018-04-24T02:31:56.149Z,0.40
2018-04-24T02:34:38.209Z,0.37
2018-04-24T02:37:16.256Z,0.47
2018-04-24T02:39:54.517Z,0.60
2018-04-24T02:42:34.926Z,1.43
2018-04-24T02:45:14.072Z,0.77
2018-04-24T02:47:52.619Z,0.60
2018-04-24T02:50:31.505Z,0.60
2018-04-24T02:53:11.200Z,0.50
2018-04-24T02:55:49.360Z,0.60
2018-04-24T02:58:28.286Z,0.40
2018-04-24T03:01:07.128Z,0.47
2018-04-24T03:03:45.336Z,0.40
2018-04-24T03:06:24.721Z,0.53
2018-04-24T03:09:03.779Z,0.80
2018-04-24T03:11:42.351Z,0.60
2018-04-24T03:14:22.463Z,0.60
2018-04-24T03:17:00.630Z,0.50
2018-04-24T03:19:39.938Z,0.70
2018-04-24T03:22:20.041Z,0.97
2018-04-24T03:24:58.308Z,1.23
2018-04-24T03:27:37.442Z,0.90
2018-04-24T03:30:16.687Z,1.20
2018-04-24T03:32:55.665Z,0.70
2018-04-24T03:35:34.265Z,0.50
2018-04-24T03:38:13.539Z,0.90
2018-04-24T03:40:51.837Z,0.60
2018-04-24T03:43:30.845Z,0.50
2018-04-24T03:46:08.985Z,0.60
2018-04-24T03:48:47.070Z,0.70
2018-04-24T03:51:25.179Z,0.67
2018-04-24T03:54:06.893Z,0.70
2018-04-24T03:56:45.090Z,0.87
2018-04-24T03:59:24.124Z,0.93
2018-04-24T04:02:07.545Z,0.50
2018-04-24T04:04:45.920Z,0.50
2018-04-24T04:07:24.833Z,0.60
2018-04-24T04:10:05.777Z,0.70
2018-04-24T04:12:46.273Z,0.60
2018-04-24T04:15:27.419Z,0.60
2018-04-24T04:18:26.188Z,0.60
2018-04-24T04:24:18.984Z,1.30
2018-04-24T04:26:58.420Z,0.60
2018-04-24T04:29:37.554Z,1.90
2018-04-24T04:32:16.736Z,1.27
2018-04-24T04:34:56.055Z,0.87
2018-04-24T04:37:35.365Z,1.57
2018-04-24T04:40:13.564Z,0.93
2018-04-24T04:42:54.692Z,1.23
2018-04-24T04:45:33.698Z,0.87
2018-04-24T04:48:11.771Z,0.90
2018-04-24T04:50:54.596Z,1.10
2018-04-24T04:53:34.202Z,1.33
2018-04-24T04:56:13.064Z,1.00
2018-04-24T04:58:55.347Z,1.30
2018-04-24T05:01:33.672Z,1.30
2018-04-24T05:04:15.052Z,1.23
2018-04-24T05:06:53.711Z,1.30
2018-04-24T05:09:34.083Z,1.77
2018-04-24T05:12:17.469Z,1.57
2018-04-24T05:14:55.735Z,1.20
2018-04-24T05:17:39.818Z,1.73
2018-04-24T05:20:17.920Z,1.53
2018-04-24T05:22:56.922Z,0.90
2018-04-24T05:25:37.665Z,1.60
2018-04-24T05:28:17.042Z,1.10
2018-04-24T05:31:01.652Z,1.50
2018-04-24T05:33:40.652Z,1.30
2018-04-24T05:36:19.057Z,0.93
2018-04-24T05:39:02.882Z,0.90
2018-04-24T05:41:41.236Z,1.33
2018-04-24T05:44:19.683Z,1.07
2018-04-24T05:47:00.397Z,1.10
2018-04-24T05:49:38.526Z,1.07
2018-04-24T05:52:20.375Z,1.20
2018-04-24T05:54:59.090Z,1.20
2018-04-24T05:57:39.822Z,1.20
2018-04-24T06:00:20.913Z,1.80
2018-04-24T06:03:00.762Z,1.67
2018-04-24T06:05:43.050Z,1.20
2018-04-24T06:08:22.317Z,2.57
2018-04-24T06:11:02.145Z,1.07
2018-04-24T06:13:45.161Z,1.10
2018-04-24T06:16:28.033Z,1.10
2018-04-24T06:19:06.446Z,1.27
2018-04-24T06:21:48.265Z,1.10
2018-04-24T06:24:26.845Z,1.00
2018-04-24T06:27:05.249Z,1.00
2018-04-24T06:29:48.896Z,0.80
2018-04-24T06:32:27.006Z,0.80
2018-04-24T06:35:08.874Z,1.00
2018-04-24T06:37:49.316Z,1.00
2018-04-24T06:40:27.607Z,0.97
2018-04-24T06:43:06.179Z,2.83
2018-04-24T06:45:48.228Z,1.20
2018-04-24T06:48:26.433Z,1.27
2018-04-24T06:51:04.985Z,0.83
2018-04-24T06:53:48.637Z,1.07
2018-04-24T06:56:29.567Z,1.50
2018-04-24T06:59:08.964Z,2.10
2018-04-24T07:01:50.835Z,0.97
2018-04-24T07:04:29.217Z,0.90
2018-04-24T07:07:10.032Z,1.53
2018-04-24T07:09:50.740Z,3.43
2018-04-24T07:12:30.364Z,1.17
2018-04-24T07:15:13.506Z,1.30
2018-04-24T07:17:51.701Z,1.53
2018-04-24T07:20:31.426Z,1.77
2018-04-24T07:23:12.998Z,1.00
2018-04-24T07:28:34.234Z,1.07
2018-04-24T07:31:17.754Z,1.40
2018-04-24T07:33:56.970Z,1.00
2018-04-24T07:36:35.476Z,1.13
2018-04-24T07:39:17.410Z,1.00
2018-04-24T07:41:55.675Z,1.57
2018-04-24T07:44:33.991Z,1.10
2018-04-24T07:47:21.480Z,2.23
2018-04-24T07:55:56.322Z,1.10
2018-04-24T07:58:35.776Z,1.20
2018-04-24T08:01:19.651Z,1.70
2018-04-24T08:03:58.296Z,2.90
2018-04-24T08:06:36.508Z,1.00
2018-04-24T08:09:23.112Z,1.23
2018-04-24T08:12:02.185Z,0.83
2018-04-24T08:17:34.136Z,1.10
2018-04-24T08:20:19.194Z,1.50
2018-04-24T08:22:57.783Z,1.27
2018-04-24T08:28:24.134Z,0.93
2018-04-24T08:31:02.755Z,1.73
2018-04-24T08:33:45.251Z,1.07
2018-04-24T08:36:24.513Z,1.10
2018-04-24T08:39:03.196Z,1.07
2018-04-24T08:41:42.403Z,1.20
2018-04-24T08:44:21.683Z,1.50
2018-04-24T08:47:02.248Z,1.20
2018-04-24T08:49:40.794Z,2.00
2018-04-24T08:52:27.877Z,1.00
2018-04-24T08:55:09.983Z,0.83
2018-04-24T09:00:42.396Z,0.90
2018-04-24T09:03:23.064Z,1.00
2018-04-24T09:06:05.473Z,1.00
2018-04-24T09:08:43.648Z,1.50
2018-04-24T09:11:26.019Z,1.30
2018-04-24T09:14:07.779Z,1.03
2018-04-24T09:16:46.161Z,1.20
2018-04-24T09:19:31.332Z,1.37
2018-04-24T09:22:13.173Z,2.07
2018-04-24T09:27:50.090Z,1.20
2018-04-24T09:30:28.827Z,1.17
2018-04-24T09:33:12.708Z,1.67
2018-04-24T09:35:51.712Z,1.03
2018-04-24T09:38:32.119Z,1.50
2018-04-24T09:41:26.264Z,1.10
2018-04-24T09:44:11.865Z,1.30
2018-04-24T09:46:52.746Z,1.07
2018-04-24T09:49:32.027Z,1.17
2018-04-24T09:52:11.133Z,1.30
2018-04-24T09:54:51.761Z,1.47
2018-04-24T09:57:40.907Z,1.00
2018-04-24T10:00:30.612Z,2.03
2018-04-24T10:03:20.862Z,1.20
2018-04-24T10:06:13.831Z,1.00
2018-04-24T10:08:52.775Z,1.67
2018-04-24T10:11:33.183Z,1.17
2018-04-24T10:14:18.601Z,1.20
2018-04-24T10:16:59.468Z,1.40
2018-04-24T10:19:54.916Z,1.20
2018-04-24T10:22:33.923Z,1.30
2018-04-24T10:25:15.365Z,1.10
2018-04-24T10:27:59.842Z,1.30
2018-04-24T10:30:48.201Z,1.30
2018-04-24T10:33:31.653Z,1.20
2018-04-24T10:36:12.499Z,1.20
2018-04-24T10:38:54.738Z,1.70
2018-04-24T10:44:31.920Z,1.30
2018-04-24T10:49:57.175Z,1.43
2018-04-24T10:52:36.264Z,1.30
2018-04-24T10:55:23.450Z,1.20
2018-04-24T10:58:05.128Z,1.70
2018-04-24T11:00:48.987Z,1.40
2018-04-24T11:03:37.006Z,1.20
2018-04-24T11:06:17.058Z,1.60
2018-04-24T11:08:56.240Z,1.47
2018-04-24T11:11:42.513Z,1.30
2018-04-24T11:14:20.846Z,1.40
2018-04-24T11:16:59.074Z,2.07
2018-04-24T11:19:43.550Z,1.33
2018-04-24T11:22:22.633Z,1.20
2018-04-24T11:25:03.549Z,1.30
2018-04-24T11:27:42.827Z,1.33
2018-04-24T11:30:21.959Z,1.23
2018-04-24T11:35:48.418Z,1.23
2018-04-24T11:38:40.990Z,1.27
2018-04-24T11:41:24.241Z,1.30
2018-04-24T11:44:08.038Z,1.50
2018-04-24T11:46:48.476Z,1.37
2018-04-24T11:49:26.617Z,1.30
2018-04-24T11:52:19.861Z,1.40
2018-04-24T11:55:06.433Z,1.30
2018-04-24T11:57:50.994Z,1.33
2018-04-24T12:00:40.696Z,1.20
2018-04-24T12:06:20.207Z,1.37
2018-04-24T12:09:04.682Z,1.20
2018-04-24T12:11:44.153Z,1.17
2018-04-24T12:14:29.971Z,1.20
2018-04-24T12:17:09.994Z,1.43
2018-04-24T12:19:50.937Z,1.33
2018-04-24T12:22:36.129Z,1.17
2018-04-24T12:25:26.381Z,3.20
2018-04-24T12:28:12.400Z,1.30
2018-04-24T12:30:53.013Z,1.43
2018-04-24T12:36:52.005Z,1.10
2018-04-24T12:39:56.934Z,1.60
2018-04-24T12:48:50.152Z,1.60
2018-04-24T12:54:36.032Z,1.20
2018-04-24T12:57:37.927Z,1.13
2018-04-24T13:00:33.871Z,1.40
2018-04-24T13:03:12.836Z,1.27
2018-04-24T13:06:08.369Z,1.30
2018-04-24T13:08:55.479Z,1.20
2018-04-24T13:11:35.541Z,1.17
2018-04-24T13:14:16.174Z,1.57
2018-04-24T13:17:15.307Z,1.30
2018-04-24T13:20:09.289Z,1.20
2018-04-24T13:22:59.785Z,1.37
2018-04-24T13:25:38.216Z,1.30
2018-04-24T13:28:22.059Z,1.87
2018-04-24T13:31:15.143Z,1.57
2018-04-24T13:33:57.262Z,2.70
2018-04-24T13:36:39.761Z,1.50
2018-04-24T13:39:18.409Z,1.23
2018-04-24T13:41:57.603Z,1.30
2018-04-24T13:44:36.707Z,1.43
2018-04-24T13:47:16.210Z,1.17
2018-04-24T13:49:57.158Z,1.20
2018-04-24T13:52:42.299Z,1.80
2018-04-24T13:55:20.967Z,1.00
2018-04-24T13:58:02.635Z,1.30
2018-04-24T14:00:45.406Z,2.10
2018-04-24T14:08:33.669Z,1.13
2018-04-24T14:11:23.149Z,1.10
2018-04-24T14:14:05.943Z,1.83
2018-04-24T14:16:44.522Z,1.67
2018-04-24T14:19:28.424Z,1.67
2018-04-24T14:22:17.394Z,1.37
2018-04-24T14:24:59.036Z,1.20
2018-04-24T14:27:46.272Z,1.47
2018-04-24T14:30:43.350Z,1.47
2018-04-24T14:33:48.827Z,1.07
2018-04-24T14:36:52.231Z,1.00
2018-04-24T14:39:49.380Z,1.00
2018-04-24T14:42:44.572Z,1.30
2018-04-24T14:45:29.772Z,1.27
2018-04-24T14:51:05.530Z,1.10
2018-04-24T14:53:48.902Z,1.23
2018-04-24T14:56:27.446Z,1.30
2018-04-24T14:59:06.734Z,1.53
2018-04-24T15:01:50.530Z,1.70
2018-04-24T15:04:33.822Z,1.10
2018-04-24T15:07:37.963Z,1.20
2018-04-24T15:10:26.128Z,1.03
2018-04-24T15:13:28.354Z,1.03
2018-04-24T15:16:11.701Z,2.27
2018-04-24T15:18:50.233Z,1.03
2018-04-24T15:21:41.761Z,1.20
2018-04-24T15:24:29.356Z,1.30
2018-04-24T15:27:12.976Z,0.97
2018-04-24T15:35:39.731Z,1.17
2018-04-24T15:38:35.215Z,1.00
2018-04-24T15:41:14.303Z,1.07
2018-04-24T15:43:52.944Z,1.30
2018-04-24T15:46:38.624Z,1.37
2018-04-24T15:49:26.925Z,0.93
2018-04-24T15:55:15.409Z,1.20
2018-04-24T15:57:53.924Z,1.00
2018-04-24T16:00:41.147Z,1.10
2018-04-24T16:03:25.096Z,1.20
2018-04-24T16:06:13.915Z,1.20
2018-04-24T16:08:53.516Z,1.20
2018-04-24T16:11:31.924Z,1.00
2018-04-24T16:14:13.733Z,1.50
2018-04-24T16:16:52.230Z,0.80
2018-04-24T16:19:38.446Z,1.10
2018-04-24T16:22:16.978Z,1.23
2018-04-24T16:24:56.363Z,1.17
2018-04-24T16:27:37.871Z,1.27
2018-04-24T16:30:16.070Z,1.00
2018-04-24T16:32:55.525Z,0.90
2018-04-24T16:35:39.136Z,1.00
2018-04-24T16:38:17.637Z,1.07
2018-04-24T16:40:57.119Z,1.00
2018-04-24T16:43:39.627Z,1.20
2018-04-24T16:46:18.907Z,1.13
2018-04-24T16:48:57.443Z,1.00
2018-04-24T16:51:40.861Z,1.20
2018-04-24T16:54:19.261Z,1.00
2018-04-24T16:56:58.600Z,1.03
2018-04-24T16:59:41.524Z,1.63
2018-04-24T17:02:21.691Z,1.77
2018-04-24T17:05:00.009Z,1.40
2018-04-24T17:07:41.656Z,6.07
2018-04-24T17:10:22.664Z,2.60
2018-04-24T17:13:00.972Z,3.67
2018-04-24T17:15:44.142Z,3.20
2018-04-24T17:18:22.265Z,5.60
2018-04-24T17:21:01.427Z,4.03
2018-04-24T17:23:44.619Z,4.33
2018-04-24T17:26:23.020Z,3.00
2018-04-24T17:29:01.426Z,4.63
2018-04-24T17:31:46.902Z,3.87
2018-04-24T17:34:25.222Z,3.63
2018-04-24T17:37:16.045Z,3.73
2018-04-24T17:40:02.866Z,5.47
2018-04-24T17:42:47.004Z,3.10
2018-04-24T17:45:26.170Z,3.93
2018-04-24T17:48:06.883Z,4.87
2018-04-24T17:50:48.091Z,3.13
2018-04-24T17:53:27.009Z,4.47
2018-04-24T17:56:09.356Z,5.83
2018-04-24T17:58:47.890Z,3.60
2018-04-24T18:01:26.960Z,2.90
2018-04-24T18:04:09.814Z,3.20
2018-04-24T18:06:49.252Z,3.23
2018-04-24T18:09:33.928Z,9.20
2018-04-24T18:12:13.113Z,14.87
2018-04-24T18:14:51.762Z,26.77
2018-04-24T18:17:46.311Z,15.30
2018-04-24T18:20:31.090Z,14.70
2018-04-24T18:23:10.124Z,9.43
2018-04-24T18:25:53.111Z,9.57
2018-04-24T18:28:32.349Z,9.37
2018-04-24T18:31:10.906Z,9.83
2018-04-24T18:33:53.909Z,5.90
2018-04-24T18:36:34.611Z,5.60
2018-04-24T18:39:13.109Z,8.03
2018-04-24T18:41:55.603Z,4.53
2018-04-24T18:44:35.096Z,4.30
2018-04-24T18:47:14.492Z,4.43
2018-04-24T18:49:57.467Z,3.60
2018-04-24T18:52:36.244Z,4.60
2018-04-24T18:55:15.131Z,7.63
2018-04-24T18:57:58.747Z,5.73
2018-04-24T19:00:37.963Z,3.47
2018-04-24T19:03:16.799Z,6.30
2018-04-24T19:06:07.369Z,9.97
2018-04-24T19:08:45.909Z,8.03
2018-04-24T19:11:25.473Z,7.67
2018-04-24T19:14:10.295Z,4.80
2018-04-24T19:16:48.683Z,6.13
2018-04-24T19:19:28.802Z,7.07
2018-04-24T19:22:12.981Z,3.87
2018-04-24T19:24:56.294Z,3.97
2018-04-24T19:27:35.064Z,3.80
2018-04-24T19:30:14.312Z,3.60
2018-04-24T19:32:54.123Z,6.10
2018-04-24T19:35:33.149Z,9.23
2018-04-24T19:38:12.202Z,4.07
2018-04-24T19:41:59.587Z,4.40
2018-04-24T19:44:38.036Z,6.47
2018-04-24T19:47:18.765Z,4.00
2018-04-24T19:50:03.446Z,5.03
2018-04-24T19:52:41.699Z,5.70
2018-04-24T19:55:25.965Z,8.70
2018-04-24T19:58:04.226Z,5.37
2018-04-24T20:00:45.096Z,4.93
2018-04-24T20:03:23.686Z,4.30
2018-04-24T20:06:02.036Z,4.20
2018-04-24T20:08:44.406Z,5.30
2018-04-24T20:11:22.539Z,4.47
2018-04-24T20:14:02.714Z,5.80
2018-04-24T20:16:45.718Z,5.10
2018-04-24T20:19:24.445Z,5.87
2018-04-24T20:22:04.286Z,5.93
2018-04-24T20:24:47.880Z,5.63
2018-04-24T20:27:27.368Z,6.00
2018-04-24T20:30:06.308Z,6.37
2018-04-24T20:32:47.021Z,9.33
2018-04-24T20:35:26.251Z,10.43
2018-04-24T20:38:04.692Z,6.23
2018-04-24T20:40:43.052Z,9.33
2018-04-24T20:43:22.920Z,7.53
2018-04-24T20:46:01.690Z,7.03
2018-04-24T20:48:40.673Z,8.03
2018-04-24T20:51:19.091Z,9.97
2018-04-24T20:54:01.801Z,12.40
2018-04-24T20:56:41.695Z,8.33
2018-04-24T20:59:21.239Z,8.10
2018-04-24T21:02:00.488Z,7.20
2018-04-24T21:04:39.166Z,6.17
2018-04-24T21:07:18.306Z,10.47
2018-04-24T21:09:58.196Z,7.63
2018-04-24T21:12:40.258Z,5.93
2018-04-24T21:15:18.687Z,6.63
2018-04-24T21:17:57.229Z,7.53
2018-04-24T21:20:37.404Z,6.07
2018-04-24T21:23:16.025Z,12.63
2018-04-24T21:25:54.364Z,6.37
2018-04-24T21:28:33.930Z,5.90
2018-04-24T21:31:12.408Z,5.63
2018-04-24T21:33:55.301Z,7.70
2018-04-24T21:36:33.610Z,6.67
2018-04-24T21:39:11.916Z,6.73
2018-04-24T21:41:51.845Z,8.03
2018-04-24T21:44:31.016Z,5.33
2018-04-24T21:47:09.860Z,6.60
2018-04-24T21:49:49.464Z,6.63
2018-04-24T21:52:29.308Z,6.53
2018-04-24T21:55:07.756Z,6.50
2018-04-24T21:57:47.261Z,6.57
2018-04-24T22:00:25.548Z,8.10
2018-04-24T22:03:04.207Z,7.63
2018-04-24T22:05:43.943Z,5.70
2018-04-24T22:08:22.549Z,5.87
2018-04-24T22:11:01.155Z,9.47
2018-04-24T22:13:40.190Z,7.27
2018-04-24T22:16:19.408Z,7.43
2018-04-24T22:18:58.039Z,7.93
2018-04-24T22:21:38.543Z,6.90
2018-04-24T22:24:17.282Z,12.43
2018-04-24T22:26:55.870Z,8.70
2018-04-24T22:29:35.668Z,8.83
2018-04-24T22:32:14.045Z,8.77
2018-04-24T22:34:52.698Z,7.07
2018-04-24T22:37:31.123Z,10.50
2018-04-24T22:40:09.977Z,8.10
2018-04-24T22:42:49.527Z,12.53
2018-04-24T22:45:29.043Z,16.60
2018-04-24T22:48:12.176Z,10.13
2018-04-24T22:50:50.991Z,11.37
2018-04-24T22:53:30.589Z,10.93
2018-04-24T22:56:09.577Z,7.63
2018-04-24T22:58:48.419Z,9.27
2018-04-24T23:01:28.761Z,7.83
2018-04-24T23:04:07.571Z,7.57
2018-04-24T23:06:46.187Z,8.87
2018-04-24T23:09:25.061Z,10.70
2018-04-24T23:12:19.693Z,9.10
2018-04-24T23:15:20.425Z,12.83
2018-04-24T23:18:20.181Z,13.77
2018-04-24T23:21:02.158Z,10.20
2018-04-24T23:23:42.867Z,11.47
2018-04-24T23:26:22.813Z,12.97
2018-04-24T23:29:02.546Z,18.80
2018-04-24T23:31:42.029Z,16.27
2018-04-24T23:34:21.856Z,20.07
2018-04-24T23:37:01.685Z,20.60
2018-04-24T23:39:40.728Z,11.60
2018-04-24T23:42:24.069Z,7.33
2018-04-24T23:45:03.265Z,8.53
2018-04-24T23:47:43.523Z,9.03
2018-04-24T23:50:22.160Z,7.67
2018-04-24T23:53:01.469Z,9.37
2018-04-24T23:55:41.178Z,10.63
2018-04-24T23:58:19.733Z,7.63
